Time;durP1;ratioP1;P1;durP2;ratioP2;P2;SDS_P1;SDS_P2;PMS_P1;PMS_P2;Temp;Humidity;BMP_temperature;BMP_pressure;BME280_temperature;BME280_humidity;BME280_pressure;Samples;Min_cycle;Max_cycle;Signal;HPM_P1;HPM_P2
2021/09/25 00:00:41;;;;;;;16.30;7.78;;;17.00;73.20;;;;;;5015540;28;20051;-74
2021/09/25 00:03:07;;;;;;;10.82;8.07;;;17.00;73.20;;;;;;5015740;28;20034;-72
2021/09/25 00:05:36;;;;;;;12.05;8.10;;;17.00;72.90;;;;;;5015332;28;20030;-72
2021/09/25 00:08:03;;;;;;;14.30;8.10;;;17.00;73.00;;;;;;5015690;28;20380;-72
2021/09/25 00:10:29;;;;;;;12.80;7.80;;;17.10;72.90;;;;;;5015052;28;20494;-73
2021/09/25 00:12:56;;;;;;;10.93;7.30;;;17.10;72.70;;;;;;5015220;28;20030;-72
2021/09/25 00:15:24;;;;;;;7.68;6.55;;;17.10;72.40;;;;;;5015605;28;20030;-74
2021/09/25 00:17:50;;;;;;;7.60;6.78;;;17.10;72.80;;;;;;5015491;28;20398;-72
2021/09/25 00:20:18;;;;;;;8.48;7.30;;;17.10;72.70;;;;;;5015244;28;20034;-74
2021/09/25 00:22:44;;;;;;;10.25;7.05;;;17.10;72.80;;;;;;5014276;28;20045;-72
2021/09/25 00:25:10;;;;;;;9.63;6.57;;;17.10;73.10;;;;;;5015205;28;20034;-74
2021/09/25 00:27:37;;;;;;;8.77;7.07;;;17.20;72.90;;;;;;5015402;28;20117;-76
2021/09/25 00:30:05;;;;;;;8.52;6.80;;;17.20;72.70;;;;;;5014830;28;20123;-72
2021/09/25 00:32:31;;;;;;;11.65;7.28;;;17.10;72.90;;;;;;5014886;28;20084;-72
2021/09/25 00:34:56;;;;;;;9.15;7.13;;;17.20;73.40;;;;;;5014954;28;20095;-73
2021/09/25 00:37:22;;;;;;;13.82;6.90;;;17.20;73.50;;;;;;5014871;28;20435;-73
2021/09/25 00:39:48;;;;;;;10.63;6.95;;;17.20;73.60;;;;;;5015046;28;20487;-73
2021/09/25 00:42:13;;;;;;;9.38;6.82;;;17.20;73.50;;;;;;5014991;28;20038;-73
2021/09/25 00:44:39;;;;;;;9.48;6.90;;;17.20;73.40;;;;;;5014778;28;20068;-72
2021/09/25 00:47:05;;;;;;;8.45;6.80;;;17.20;73.10;;;;;;5014990;28;20065;-73
2021/09/25 00:49:31;;;;;;;8.73;7.45;;;17.20;73.40;;;;;;5014596;28;20566;-72
2021/09/25 00:51:56;;;;;;;10.38;7.53;;;17.20;73.80;;;;;;5014980;28;20034;-72
2021/09/25 00:54:22;;;;;;;10.57;8.15;;;17.20;73.80;;;;;;5014652;28;20475;-73
2021/09/25 00:56:49;;;;;;;8.75;7.85;;;17.20;74.40;;;;;;5014575;28;20392;-72
2021/09/25 00:59:16;;;;;;;12.02;7.78;;;17.20;74.10;;;;;;5013848;28;20455;-72
2021/09/25 01:01:42;;;;;;;9.00;7.78;;;17.20;73.50;;;;;;5014284;28;20375;-72
2021/09/25 01:04:08;;;;;;;9.10;7.45;;;17.30;72.80;;;;;;5014421;28;20041;-73
2021/09/25 01:06:34;;;;;;;8.80;7.22;;;17.30;73.00;;;;;;5014099;28;20052;-72
2021/09/25 01:09:00;;;;;;;8.27;7.47;;;17.30;73.90;;;;;;5014395;28;20042;-72
2021/09/25 01:11:26;;;;;;;12.85;8.38;;;17.30;73.90;;;;;;5014334;28;20511;-72
2021/09/25 01:13:53;;;;;;;8.70;7.85;;;17.30;73.40;;;;;;5013728;28;20042;-73
2021/09/25 01:16:22;;;;;;;9.98;7.57;;;17.30;73.30;;;;;;5014077;28;20482;-72
2021/09/25 01:18:49;;;;;;;10.15;7.47;;;17.30;73.30;;;;;;5014196;28;20490;-74
2021/09/25 01:21:16;;;;;;;13.05;7.43;;;17.30;73.20;;;;;;5013680;28;20040;-75
2021/09/25 01:23:42;;;;;;;9.32;6.72;;;17.20;73.60;;;;;;5014138;28;20057;-72
2021/09/25 01:26:08;;;;;;;9.43;7.43;;;17.20;73.80;;;;;;5014197;28;20467;-72
2021/09/25 01:28:36;;;;;;;11.73;7.95;;;17.20;74.10;;;;;;5013710;28;20109;-73
2021/09/25 01:31:04;;;;;;;10.07;7.13;;;17.10;73.80;;;;;;5013917;28;20060;-72
2021/09/25 01:33:42;;;;;;;10.10;7.13;;;17.10;73.80;;;;;;5014055;28;20108;-75
2021/09/25 01:36:09;;;;;;;8.27;7.47;;;17.10;74.00;;;;;;5012803;28;20513;-72
2021/09/25 01:38:35;;;;;;;10.07;7.13;;;17.10;74.70;;;;;;5013899;28;20037;-74
2021/09/25 01:41:01;;;;;;;9.77;7.28;;;17.20;74.20;;;;;;5013958;28;20030;-73
2021/09/25 01:43:29;;;;;;;11.73;7.80;;;17.20;73.90;;;;;;5013334;28;20034;-73
2021/09/25 01:45:55;;;;;;;7.95;6.90;;;17.20;74.10;;;;;;5013750;28;20104;-75
2021/09/25 01:48:22;;;;;;;11.75;7.45;;;17.20;74.50;;;;;;5013854;28;20414;-72
2021/09/25 01:50:48;;;;;;;9.23;7.90;;;17.20;75.00;;;;;;5013440;28;20030;-72
2021/09/25 01:53:14;;;;;;;12.77;8.15;;;17.20;74.60;;;;;;5013350;28;20040;-72
2021/09/25 01:55:40;;;;;;;8.63;7.38;;;17.20;74.40;;;;;;5013962;28;20026;-73
2021/09/25 01:58:05;;;;;;;7.95;7.15;;;17.20;74.40;;;;;;5013222;28;20091;-73
2021/09/25 02:00:34;;;;;;;10.88;7.60;;;17.20;74.50;;;;;;5013659;28;20030;-74
2021/09/25 02:03:01;;;;;;;8.80;7.90;;;17.20;74.80;;;;;;5013781;28;20120;-73
2021/09/25 02:05:27;;;;;;;9.07;7.60;;;17.20;74.60;;;;;;5013598;28;20462;-74
2021/09/25 02:07:53;;;;;;;9.38;7.00;;;17.20;74.00;;;;;;5013525;28;20119;-72
2021/09/25 02:10:19;;;;;;;12.25;6.82;;;17.30;73.80;;;;;;5013636;28;20077;-73
2021/09/25 02:12:46;;;;;;;10.07;7.03;;;17.30;73.80;;;;;;5013727;28;20502;-72
2021/09/25 02:15:12;;;;;;;9.45;6.82;;;17.20;74.00;;;;;;5013681;28;20034;-72
2021/09/25 02:17:39;;;;;;;14.50;6.70;;;17.20;74.50;;;;;;5013521;28;20026;-72
2021/09/25 02:20:07;;;;;;;8.95;6.70;;;17.20;74.30;;;;;;5013429;28;20033;-72
2021/09/25 02:22:34;;;;;;;7.32;6.03;;;17.30;74.00;;;;;;5013404;28;20033;-72
2021/09/25 02:25:00;;;;;;;6.82;5.70;;;17.30;73.90;;;;;;5013150;28;20026;-72
2021/09/25 02:30:01;;;;;;;9.77;6.55;;;17.30;74.10;;;;;;4749092;23;20129;-71
2021/09/25 02:32:26;;;;;;;9.73;6.50;;;17.30;74.00;;;;;;4993081;28;20169;-72
2021/09/25 02:34:52;;;;;;;7.82;6.03;;;17.40;74.00;;;;;;4993139;28;20034;-71
2021/09/25 02:37:18;;;;;;;7.00;6.30;;;17.30;73.80;;;;;;4993349;28;20042;-72
2021/09/25 02:39:43;;;;;;;8.60;6.18;;;17.40;73.70;;;;;;4993216;28;20027;-72
2021/09/25 02:42:09;;;;;;;7.85;5.90;;;17.40;73.60;;;;;;4993460;28;20070;-74
2021/09/25 02:44:34;;;;;;;9.15;6.20;;;17.40;74.00;;;;;;4993320;28;20031;-71
2021/09/25 02:47:00;;;;;;;10.95;6.85;;;17.40;73.70;;;;;;4995886;28;20038;-74
2021/09/25 02:49:26;;;;;;;8.52;6.75;;;17.40;73.50;;;;;;4997105;28;20049;-72
2021/09/25 02:51:51;;;;;;;7.80;6.03;;;17.40;73.70;;;;;;4997044;28;20398;-72
2021/09/25 02:54:17;;;;;;;10.25;6.50;;;17.40;73.80;;;;;;4996953;28;20031;-75
2021/09/25 02:56:43;;;;;;;11.27;7.03;;;17.40;74.20;;;;;;4996918;28;20046;-73
2021/09/25 02:59:08;;;;;;;8.75;7.25;;;17.40;74.00;;;;;;4997099;28;20126;-72
2021/09/25 03:01:34;;;;;;;12.32;7.45;;;17.40;74.20;;;;;;4997042;28;20034;-72
2021/09/25 03:04:00;;;;;;;10.43;6.82;;;17.40;74.40;;;;;;4996942;28;20383;-72
2021/09/25 03:06:26;;;;;;;9.15;7.10;;;17.40;74.70;;;;;;4996904;28;20035;-72
2021/09/25 03:08:53;;;;;;;10.68;7.85;;;17.40;75.00;;;;;;4996719;28;20045;-71
2021/09/25 03:11:19;;;;;;;9.88;6.90;;;17.40;74.90;;;;;;4996669;28;20046;-74
2021/09/25 03:13:45;;;;;;;11.50;8.07;;;17.40;75.00;;;;;;4996482;28;20438;-72
2021/09/25 03:16:13;;;;;;;15.27;7.18;;;17.40;75.00;;;;;;4996388;28;20034;-72
2021/09/25 03:18:39;;;;;;;8.15;7.07;;;17.40;74.70;;;;;;4996396;28;20529;-72
2021/09/25 03:21:05;;;;;;;13.23;7.15;;;17.40;74.30;;;;;;4996414;28;20101;-71
2021/09/25 03:23:31;;;;;;;12.60;7.10;;;17.40;73.80;;;;;;4996577;28;20038;-72
2021/09/25 03:25:56;;;;;;;11.45;7.28;;;17.40;73.70;;;;;;4996537;28;20030;-74
2021/09/25 03:28:22;;;;;;;10.05;6.88;;;17.40;73.70;;;;;;4978892;28;20394;-72
2021/09/25 03:30:48;;;;;;;12.27;7.93;;;17.40;73.90;;;;;;4996280;28;20050;-72
2021/09/25 03:33:13;;;;;;;9.23;7.07;;;17.40;74.10;;;;;;4996213;28;20038;-73
2021/09/25 03:35:46;;;;;;;12.07;8.15;;;17.40;74.20;;;;;;4996183;28;20084;-74
2021/09/25 03:38:21;;;;;;;15.77;8.98;;;17.40;73.90;;;;;;4996359;28;20026;-74
2021/09/25 03:40:48;;;;;;;9.98;8.95;;;17.40;73.80;;;;;;4996364;28;20046;-71
2021/09/25 03:43:13;;;;;;;14.35;8.48;;;17.40;74.20;;;;;;4996133;28;20026;-75
2021/09/25 03:45:39;;;;;;;11.35;8.52;;;17.40;74.40;;;;;;4996157;28;20045;-71
2021/09/25 03:48:05;;;;;;;11.30;8.75;;;17.40;74.60;;;;;;4995899;28;20046;-72
2021/09/25 03:50:35;;;;;;;9.32;8.43;;;17.30;74.50;;;;;;4995975;28;20089;-71
2021/09/25 03:53:01;;;;;;;9.75;8.85;;;17.30;74.80;;;;;;4996178;28;20027;-71
2021/09/25 03:55:27;;;;;;;11.63;8.02;;;17.30;75.00;;;;;;4995932;28;20486;-72
2021/09/25 03:57:55;;;;;;;12.88;8.63;;;17.30;75.20;;;;;;4994864;28;20035;-74
2021/09/25 04:00:22;;;;;;;12.50;9.05;;;17.30;75.30;;;;;;4996125;28;20072;-75
2021/09/25 04:02:50;;;;;;;12.18;8.95;;;17.30;74.80;;;;;;4995768;28;20038;-72
2021/09/25 04:05:16;;;;;;;10.13;9.05;;;17.30;75.20;;;;;;4995990;28;20023;-74
2021/09/25 04:07:42;;;;;;;12.10;8.13;;;17.30;75.40;;;;;;4995745;28;20038;-72
2021/09/25 04:10:08;;;;;;;12.82;8.52;;;17.20;75.60;;;;;;4995726;28;20085;-72
2021/09/25 04:12:34;;;;;;;15.63;8.73;;;17.20;75.90;;;;;;4995564;28;20479;-71
2021/09/25 04:15:00;;;;;;;10.13;8.80;;;17.20;75.80;;;;;;4995809;28;20050;-75
2021/09/25 04:17:25;;;;;;;10.05;8.40;;;17.20;75.50;;;;;;4995631;28;20054;-72
2021/09/25 04:19:51;;;;;;;9.20;8.25;;;17.20;75.10;;;;;;4995461;28;20093;-72
2021/09/25 04:22:17;;;;;;;14.68;8.70;;;17.20;75.00;;;;;;4995346;28;20482;-71
2021/09/25 04:24:42;;;;;;;10.27;9.18;;;17.30;75.00;;;;;;4995455;28;20473;-72
2021/09/25 04:27:10;;;;;;;11.70;9.27;;;17.20;74.60;;;;;;4995601;28;20031;-71
2021/09/25 04:29:35;;;;;;;11.00;8.38;;;17.20;75.30;;;;;;4995037;28;20038;-71
2021/09/25 04:32:01;;;;;;;10.07;8.75;;;17.20;75.60;;;;;;4995679;28;20070;-76
2021/09/25 04:34:28;;;;;;;9.98;8.82;;;17.20;75.30;;;;;;4995433;28;20113;-75
2021/09/25 04:36:54;;;;;;;11.60;9.05;;;17.20;75.30;;;;;;4995134;28;20031;-72
2021/09/25 04:39:19;;;;;;;10.32;9.15;;;17.10;75.20;;;;;;4995073;28;20081;-75
2021/09/25 04:41:45;;;;;;;11.07;8.98;;;17.10;75.50;;;;;;4995260;28;20034;-71
2021/09/25 04:44:14;;;;;;;13.02;9.15;;;17.10;75.60;;;;;;4995353;28;20066;-71
2021/09/25 04:46:40;;;;;;;9.48;8.30;;;17.20;75.90;;;;;;4977564;28;20034;-72
2021/09/25 04:49:06;;;;;;;10.55;9.27;;;17.20;75.60;;;;;;4994940;28;20105;-75
2021/09/25 04:51:32;;;;;;;16.58;9.73;;;17.20;75.60;;;;;;4994934;28;20046;-75
2021/09/25 04:53:58;;;;;;;11.68;8.70;;;17.10;75.60;;;;;;4995013;28;20030;-75
2021/09/25 04:56:24;;;;;;;11.35;8.57;;;17.10;75.60;;;;;;4994777;28;20398;-73
2021/09/25 04:58:50;;;;;;;10.40;8.48;;;17.10;75.90;;;;;;4994856;28;20394;-75
2021/09/25 05:01:16;;;;;;;10.05;9.00;;;17.20;75.80;;;;;;4994625;28;20117;-71
2021/09/25 05:03:42;;;;;;;12.40;8.85;;;17.20;75.90;;;;;;4994710;28;20138;-71
2021/09/25 05:06:07;;;;;;;11.60;9.50;;;17.20;76.00;;;;;;4977159;28;20077;-71
2021/09/25 05:08:34;;;;;;;11.30;9.13;;;17.20;76.10;;;;;;4994166;28;20039;-73
2021/09/25 05:10:59;;;;;;;12.50;9.75;;;17.20;76.10;;;;;;4994421;28;20035;-75
2021/09/25 05:13:26;;;;;;;15.15;9.70;;;17.20;76.00;;;;;;4994488;28;20118;-74
2021/09/25 05:15:52;;;;;;;11.13;9.18;;;17.20;75.90;;;;;;4994303;28;20035;-75
2021/09/25 05:18:17;;;;;;;15.43;9.32;;;17.20;75.90;;;;;;4994488;28;20041;-74
2021/09/25 05:20:43;;;;;;;11.35;9.82;;;17.20;75.80;;;;;;4994631;28;20035;-74
2021/09/25 05:23:09;;;;;;;13.30;8.93;;;17.20;75.90;;;;;;4994528;28;20169;-71
2021/09/25 05:25:35;;;;;;;11.80;9.07;;;17.20;75.90;;;;;;4994484;28;20486;-71
2021/09/25 05:28:00;;;;;;;11.68;8.65;;;17.30;76.40;;;;;;4994212;28;20042;-71
2021/09/25 05:30:26;;;;;;;12.40;7.72;;;17.20;75.50;;;;;;4995758;28;20085;-73
2021/09/25 05:32:52;;;;;;;13.75;8.52;;;17.20;75.50;;;;;;4976484;28;20042;-75
2021/09/25 05:35:17;;;;;;;12.57;8.80;;;17.30;76.70;;;;;;4993923;28;20026;-71
2021/09/25 05:37:43;;;;;;;9.85;8.85;;;17.20;76.70;;;;;;4994042;28;20423;-71
2021/09/25 05:40:09;;;;;;;15.00;8.73;;;17.20;76.80;;;;;;4993913;28;20077;-75
2021/09/25 05:42:35;;;;;;;11.00;8.85;;;17.20;76.60;;;;;;4993947;28;20034;-75
2021/09/25 05:45:02;;;;;;;13.63;8.50;;;17.20;76.50;;;;;;4993938;28;20041;-72
2021/09/25 05:47:27;;;;;;;12.27;8.90;;;17.30;76.90;;;;;;4993892;28;20034;-75
2021/09/25 05:49:53;;;;;;;10.05;9.13;;;17.30;76.90;;;;;;4993407;28;20565;-72
2021/09/25 05:52:20;;;;;;;12.07;8.95;;;17.30;76.80;;;;;;4993851;28;20031;-72
2021/09/25 05:54:46;;;;;;;14.38;8.68;;;17.30;77.40;;;;;;4976477;28;20057;-72
2021/09/25 05:57:12;;;;;;;13.02;7.97;;;17.30;77.60;;;;;;4994066;28;20116;-73
2021/09/25 05:59:38;;;;;;;8.85;7.85;;;17.30;77.50;;;;;;4993726;28;20037;-72
2021/09/25 06:02:04;;;;;;;10.25;7.63;;;17.30;77.40;;;;;;4993910;28;20026;-72
2021/09/25 06:04:32;;;;;;;13.57;7.47;;;17.30;77.40;;;;;;4993603;28;20541;-71
2021/09/25 06:06:57;;;;;;;10.07;6.68;;;17.40;77.30;;;;;;4993585;28;20034;-71
2021/09/25 06:09:23;;;;;;;12.07;6.97;;;17.40;76.80;;;;;;4993305;28;20049;-72
2021/09/25 06:11:51;;;;;;;14.82;7.00;;;17.40;76.30;;;;;;4993741;28;20109;-72
2021/09/25 06:14:17;;;;;;;9.40;6.57;;;17.40;76.10;;;;;;4993769;28;20038;-70
2021/09/25 06:16:43;;;;;;;9.80;6.68;;;17.40;76.00;;;;;;4993809;28;20062;-72
2021/09/25 06:19:09;;;;;;;9.18;6.55;;;17.50;75.70;;;;;;4993493;28;20069;-71
2021/09/25 06:21:34;;;;;;;8.10;6.60;;;17.50;75.40;;;;;;4995440;28;20039;-73
2021/09/25 06:24:00;;;;;;;7.53;6.38;;;17.50;75.50;;;;;;4997808;28;20035;-71
2021/09/25 06:26:26;;;;;;;8.48;6.45;;;17.50;75.70;;;;;;5004706;28;20045;-71
2021/09/25 06:28:52;;;;;;;10.90;7.35;;;17.50;76.20;;;;;;5016771;28;20060;-73
2021/09/25 06:31:20;;;;;;;11.40;7.00;;;17.60;76.20;;;;;;5016886;28;20050;-72
2021/09/25 06:33:46;;;;;;;9.65;6.88;;;17.60;76.40;;;;;;5016610;28;20056;-72
2021/09/25 06:36:12;;;;;;;11.10;7.90;;;17.60;76.20;;;;;;5016757;28;20033;-72
2021/09/25 06:38:38;;;;;;;9.52;7.25;;;17.60;76.30;;;;;;5016629;28;20385;-72
2021/09/25 06:41:05;;;;;;;12.32;7.00;;;17.60;76.40;;;;;;5014178;28;20041;-72
2021/09/25 06:43:31;;;;;;;14.70;7.38;;;17.60;76.40;;;;;;5013897;28;20038;-72
2021/09/25 06:45:56;;;;;;;11.82;7.60;;;17.60;76.60;;;;;;5013990;28;20034;-71
2021/09/25 06:48:22;;;;;;;8.75;7.22;;;17.70;76.60;;;;;;5016069;28;20386;-73
2021/09/25 06:50:48;;;;;;;15.38;7.10;;;17.70;76.30;;;;;;5016828;28;20400;-73
2021/09/25 06:53:14;;;;;;;11.85;7.20;;;17.70;76.20;;;;;;5016611;28;20038;-72
2021/09/25 06:55:39;;;;;;;11.73;6.88;;;17.70;76.00;;;;;;5016103;28;20560;-72
2021/09/25 06:58:06;;;;;;;7.13;6.38;;;17.80;75.80;;;;;;5016519;28;20375;-72
2021/09/25 07:00:33;;;;;;;12.43;7.60;;;17.80;75.70;;;;;;5016652;28;20033;-72
2021/09/25 07:02:59;;;;;;;9.55;6.20;;;17.80;75.60;;;;;;5016147;28;20053;-73
2021/09/25 07:05:25;;;;;;;8.48;6.45;;;17.80;75.60;;;;;;5016741;28;20390;-72
2021/09/25 07:07:50;;;;;;;10.95;5.95;;;17.90;75.40;;;;;;5016602;28;20045;-73
2021/09/25 07:10:17;;;;;;;8.32;7.38;;;17.90;75.30;;;;;;5015970;28;20038;-72
2021/09/25 07:12:43;;;;;;;10.57;6.78;;;17.90;75.20;;;;;;5016702;28;20378;-73
2021/09/25 07:15:12;;;;;;;9.68;7.03;;;17.90;75.10;;;;;;5012893;28;20041;-71
2021/09/25 07:17:38;;;;;;;10.18;6.88;;;18.00;75.50;;;;;;5011555;28;20034;-72
2021/09/25 07:20:07;;;;;;;7.70;6.95;;;18.00;75.10;;;;;;5015337;28;20034;-73
2021/09/25 07:22:33;;;;;;;11.90;7.05;;;18.10;75.00;;;;;;5010776;28;20028;-72
2021/09/25 07:24:59;;;;;;;9.98;7.28;;;18.10;77.30;;;;;;4996323;28;20034;-71
2021/09/25 07:27:25;;;;;;;9.93;7.00;;;18.20;78.50;;;;;;4996182;28;20050;-73
2021/09/25 07:29:51;;;;;;;8.85;7.45;;;18.20;80.90;;;;;;4995759;28;20058;-71
2021/09/25 07:32:17;;;;;;;8.90;6.70;;;18.20;82.40;;;;;;4995626;28;20118;-72
2021/09/25 07:34:43;;;;;;;11.27;7.70;;;18.20;80.70;;;;;;4996076;28;20046;-71
2021/09/25 07:37:09;;;;;;;8.55;7.38;;;18.30;76.30;;;;;;4995671;28;20031;-72
2021/09/25 07:39:37;;;;;;;8.73;7.82;;;18.30;79.90;;;;;;4994875;28;20030;-72
2021/09/25 07:42:03;;;;;;;9.52;7.85;;;18.30;79.60;;;;;;4996202;28;20038;-74
2021/09/25 07:44:29;;;;;;;9.77;7.22;;;18.30;79.70;;;;;;4978596;28;20031;-72
2021/09/25 07:46:55;;;;;;;9.02;7.40;;;18.40;80.30;;;;;;4995037;28;20030;-71
2021/09/25 07:49:21;;;;;;;11.88;6.80;;;18.30;73.70;;;;;;4995605;28;20484;-72
2021/09/25 07:51:46;;;;;;;9.27;7.07;;;18.50;79.00;;;;;;4995811;28;20035;-71
2021/09/25 07:54:12;;;;;;;10.68;7.65;;;18.50;75.20;;;;;;4995618;28;20041;-73
2021/09/25 07:56:38;;;;;;;8.75;6.57;;;18.40;73.70;;;;;;4996025;28;20038;-72
2021/09/25 07:59:04;;;;;;;12.88;7.32;;;18.40;73.40;;;;;;4995581;28;20033;-72
2021/09/25 08:01:29;;;;;;;7.13;6.28;;;18.40;73.30;;;;;;4996249;28;20034;-73
2021/09/25 08:03:55;;;;;;;13.27;7.40;;;18.50;78.50;;;;;;4995930;28;20037;-71
2021/09/25 08:06:21;;;;;;;10.82;8.07;;;18.50;73.50;;;;;;4995831;28;20046;-71
2021/09/25 08:08:47;;;;;;;13.38;6.72;;;18.50;73.10;;;;;;4995515;28;20031;-74
2021/09/25 08:11:13;;;;;;;9.40;7.78;;;18.50;72.70;;;;;;4995561;28;20402;-72
2021/09/25 08:13:39;;;;;;;12.52;7.57;;;18.50;73.50;;;;;;4994317;28;20050;-74
2021/09/25 08:16:05;;;;;;;13.57;7.93;;;18.50;72.80;;;;;;4995134;28;20041;-75
2021/09/25 08:18:31;;;;;;;11.98;7.57;;;18.50;72.70;;;;;;4995018;28;20062;-75
2021/09/25 08:20:57;;;;;;;8.40;7.32;;;18.60;72.60;;;;;;4995282;28;20046;-75
2021/09/25 08:23:23;;;;;;;9.13;7.18;;;18.60;72.70;;;;;;4995104;28;20117;-72
2021/09/25 08:25:49;;;;;;;12.50;6.47;;;18.60;73.30;;;;;;4995111;28;20130;-74
2021/09/25 08:28:15;;;;;;;9.38;6.32;;;18.60;73.20;;;;;;4995031;28;20106;-73
2021/09/25 08:30:41;;;;;;;8.75;6.32;;;18.60;73.30;;;;;;4994959;28;20410;-73
2021/09/25 08:33:07;;;;;;;7.97;6.70;;;18.60;73.30;;;;;;4994804;28;20030;-75
2021/09/25 08:35:33;;;;;;;12.30;6.63;;;18.70;73.30;;;;;;4995114;28;20042;-73
2021/09/25 08:37:58;;;;;;;7.25;5.50;;;18.70;73.40;;;;;;4994905;28;20395;-74
2021/09/25 08:40:24;;;;;;;10.68;6.40;;;18.70;73.60;;;;;;4994702;28;20035;-73
2021/09/25 08:42:52;;;;;;;9.85;7.10;;;18.80;73.40;;;;;;4994935;28;20070;-73
2021/09/25 08:45:19;;;;;;;12.55;7.00;;;18.80;73.30;;;;;;4994804;28;20038;-73
2021/09/25 08:47:45;;;;;;;14.65;7.20;;;18.80;73.20;;;;;;4995380;28;20414;-73
2021/09/25 08:50:15;;;;;;;10.88;6.43;;;18.80;73.10;;;;;;4995035;28;20434;-72
2021/09/25 08:52:41;;;;;;;9.88;6.78;;;18.90;73.10;;;;;;4995088;28;20023;-72
2021/09/25 08:55:08;;;;;;;9.75;7.05;;;18.90;72.80;;;;;;4994826;28;20034;-73
2021/09/25 08:57:34;;;;;;;12.15;7.22;;;18.90;72.90;;;;;;4994963;28;20133;-72
2021/09/25 09:00:38;;;;;;;9.43;7.00;;;19.00;73.10;;;;;;4994876;28;20053;-73
2021/09/25 09:03:32;;;;;;;13.93;6.75;;;19.00;73.30;;;;;;4993129;28;20041;-74
2021/09/25 09:06:07;;;;;;;11.35;6.68;;;19.00;72.50;;;;;;4991965;28;20117;-74
2021/09/25 09:08:33;;;;;;;9.80;7.03;;;19.00;72.10;;;;;;4992153;28;20065;-73
2021/09/25 09:10:59;;;;;;;9.48;6.72;;;19.10;72.40;;;;;;4994632;28;20038;-73
2021/09/25 09:13:25;;;;;;;16.48;6.85;;;19.10;72.20;;;;;;4994538;28;20040;-73
2021/09/25 09:15:53;;;;;;;12.05;6.82;;;19.10;72.40;;;;;;4994390;28;20070;-72
2021/09/25 09:18:21;;;;;;;10.25;7.38;;;19.10;72.40;;;;;;4993996;28;20438;-73
2021/09/25 09:20:59;;;;;;;12.90;7.72;;;19.10;72.60;;;;;;4994391;28;20061;-73
2021/09/25 09:23:25;;;;;;;12.30;7.32;;;19.10;72.60;;;;;;4994428;28;20034;-73
2021/09/25 09:25:51;;;;;;;10.60;8.10;;;19.20;72.60;;;;;;4994029;28;20113;-73
2021/09/25 09:28:25;;;;;;;14.77;8.00;;;19.20;72.60;;;;;;4993049;28;20042;-73
2021/09/25 09:30:54;;;;;;;13.15;8.25;;;19.20;72.30;;;;;;4991594;28;20617;-72
2021/09/25 09:33:33;;;;;;;10.13;7.57;;;19.20;72.40;;;;;;4974426;28;20478;-73
2021/09/25 09:36:21;;;;;;;8.05;7.22;;;19.30;72.50;;;;;;4994003;28;20030;-73
2021/09/25 09:39:10;;;;;;;11.10;7.35;;;19.40;72.70;;;;;;4991506;28;20023;-74
2021/09/25 09:41:55;;;;;;;9.43;7.57;;;19.40;72.10;;;;;;4991683;28;20026;-74
2021/09/25 09:44:23;;;;;;;9.25;7.15;;;19.40;71.80;;;;;;4993084;28;20038;-73
2021/09/25 09:46:59;;;;;;;10.82;7.20;;;19.40;71.60;;;;;;4993550;28;20577;-72
2021/09/25 09:49:42;;;;;;;10.05;6.93;;;19.40;71.20;;;;;;4993563;28;20046;-73
2021/09/25 09:52:11;;;;;;;10.52;6.97;;;19.50;70.90;;;;;;4991286;28;20586;-73
2021/09/25 09:54:38;;;;;;;11.27;7.68;;;19.50;70.60;;;;;;4991016;28;20499;-72
2021/09/25 09:57:12;;;;;;;9.77;7.40;;;19.50;69.90;;;;;;4992572;28;20037;-73
2021/09/25 09:59:39;;;;;;;7.47;6.65;;;19.50;69.80;;;;;;4993341;28;20038;-74
2021/09/25 10:02:06;;;;;;;9.93;7.35;;;19.60;69.10;;;;;;4993679;28;20030;-73
2021/09/25 10:04:33;;;;;;;14.10;6.97;;;19.60;69.50;;;;;;4993868;28;20026;-72
2021/09/25 10:06:59;;;;;;;10.35;6.80;;;19.60;69.70;;;;;;4993760;28;20035;-73
2021/09/25 10:09:27;;;;;;;12.07;6.60;;;19.60;70.40;;;;;;4993149;28;20051;-72
2021/09/25 10:11:59;;;;;;;7.32;6.22;;;19.60;70.40;;;;;;4993275;28;20038;-72
2021/09/25 10:14:30;;;;;;;7.97;6.38;;;19.60;70.20;;;;;;4993388;28;20034;-73
2021/09/25 10:16:59;;;;;;;8.87;6.37;;;19.60;70.30;;;;;;4993510;28;20386;-73
2021/09/25 10:19:30;;;;;;;8.52;6.53;;;19.70;70.20;;;;;;4974857;28;20035;-72
2021/09/25 10:22:03;;;;;;;8.40;6.97;;;19.70;70.00;;;;;;4992793;28;20466;-72
2021/09/25 10:24:36;;;;;;;7.70;5.78;;;19.70;69.70;;;;;;4992956;28;20026;-72
2021/09/25 10:27:04;;;;;;;11.18;6.07;;;19.70;69.80;;;;;;4975416;28;20042;-72
2021/09/25 10:29:30;;;;;;;6.43;5.10;;;19.80;69.70;;;;;;4993018;28;20047;-73
2021/09/25 10:32:20;;;;;;;9.75;5.32;;;19.80;69.60;;;;;;4992991;28;20390;-72
2021/09/25 10:35:25;;;;;;;14.35;5.85;;;19.90;69.80;;;;;;4992919;28;20027;-73
2021/09/25 10:38:02;;;;;;;9.20;5.45;;;19.80;69.20;;;;;;4993498;28;20034;-72
2021/09/25 10:40:30;;;;;;;8.85;5.20;;;19.90;69.10;;;;;;4993559;28;20061;-72
2021/09/25 10:43:04;;;;;;;7.63;5.85;;;20.00;69.10;;;;;;4993538;28;20038;-72
2021/09/25 10:45:37;;;;;;;9.43;6.72;;;19.90;68.90;;;;;;4993422;28;20031;-73
2021/09/25 10:48:23;;;;;;;9.18;6.07;;;20.00;68.50;;;;;;4993491;28;20158;-72
2021/09/25 10:51:01;;;;;;;11.18;5.78;;;20.00;66.80;;;;;;4979671;28;20134;-72
2021/09/25 10:53:32;;;;;;;9.13;5.43;;;20.00;66.60;;;;;;4993582;28;20483;-72
2021/09/25 10:55:59;;;;;;;7.53;5.55;;;20.10;66.80;;;;;;4990967;28;20053;-72
2021/09/25 10:58:25;;;;;;;7.47;5.30;;;20.10;67.40;;;;;;4990621;28;20035;-72
2021/09/25 11:00:58;;;;;;;6.20;5.30;;;20.10;67.00;;;;;;4991666;28;20042;-72
2021/09/25 11:06:28;;;;;;;7.30;5.80;;;20.20;66.30;;;;;;4993598;28;20026;-72
2021/09/25 11:08:55;;;;;;;9.20;5.38;;;20.20;64.60;;;;;;4996994;28;20038;-72
2021/09/25 11:11:38;;;;;;;12.15;5.88;;;20.30;64.50;;;;;;4996982;28;20424;-72
2021/09/25 11:14:06;;;;;;;8.55;5.22;;;20.30;63.80;;;;;;4994421;28;20042;-73
2021/09/25 11:16:50;;;;;;;9.07;5.78;;;20.30;64.10;;;;;;4994239;28;20035;-72
2021/09/25 11:19:22;;;;;;;9.88;5.28;;;20.40;64.00;;;;;;4995503;28;20113;-72
2021/09/25 11:21:50;;;;;;;6.50;4.80;;;20.40;63.80;;;;;;4996955;28;20026;-72
2021/09/25 11:24:17;;;;;;;8.30;5.13;;;20.40;64.10;;;;;;4979464;28;20483;-72
2021/09/25 11:26:43;;;;;;;7.90;5.05;;;20.40;64.60;;;;;;4996747;28;20035;-72
2021/09/25 11:29:09;;;;;;;13.00;6.00;;;20.50;64.60;;;;;;4996606;28;20053;-73
2021/09/25 11:31:36;;;;;;;9.73;4.57;;;20.50;63.00;;;;;;4996337;28;20050;-72
2021/09/25 11:34:18;;;;;;;6.00;4.88;;;20.50;63.10;;;;;;4996780;28;20041;-73
2021/09/25 11:36:49;;;;;;;;;;;20.60;62.90;;;;;;4979514;28;20380;-72
2021/09/25 11:39:19;;;;;;;7.55;5.78;;;20.60;62.70;;;;;;4993864;28;19916;-73
2021/09/25 11:41:45;;;;;;;6.93;5.97;;;20.60;63.10;;;;;;4993656;28;20491;-72
2021/09/25 11:44:10;;;;;;;10.90;5.88;;;20.70;63.60;;;;;;4994598;28;20036;-72
2021/09/25 11:46:36;;;;;;;8.77;5.82;;;20.70;62.60;;;;;;4995973;28;20041;-72
2021/09/25 11:49:02;;;;;;;7.22;5.47;;;20.70;62.60;;;;;;4995932;28;20117;-72
2021/09/25 11:51:27;;;;;;;7.47;5.93;;;20.70;62.80;;;;;;4978665;28;20039;-74
2021/09/25 11:53:53;;;;;;;10.55;5.75;;;20.80;62.80;;;;;;4995957;28;20034;-74
2021/09/25 11:56:27;;;;;;;7.50;6.22;;;20.80;62.90;;;;;;4995982;28;20037;-72
2021/09/25 11:58:53;;;;;;;11.52;8.38;;;20.90;62.80;;;;;;4995812;28;20113;-73
2021/09/25 12:01:19;;;;;;;11.48;6.95;;;21.00;63.10;;;;;;4995764;28;20157;-72
2021/09/25 12:03:44;;;;;;;10.38;6.53;;;21.00;62.90;;;;;;4995788;28;20478;-72
2021/09/25 12:06:10;;;;;;;10.27;7.45;;;21.10;62.70;;;;;;4995719;28;20530;-72
2021/09/25 12:08:36;;;;;;;11.35;7.68;;;21.10;62.00;;;;;;4995442;28;20097;-72
2021/09/25 12:11:10;;;;;;;9.52;8.52;;;21.20;62.10;;;;;;4995775;28;20442;-73
2021/09/25 12:13:41;;;;;;;10.80;8.60;;;21.30;62.10;;;;;;4995832;28;20487;-72
2021/09/25 12:16:15;;;;;;;8.35;7.20;;;21.30;62.00;;;;;;4995495;28;20451;-72
2021/09/25 12:18:43;;;;;;;11.48;9.32;;;21.30;62.00;;;;;;4994599;28;20031;-74
2021/09/25 12:21:13;;;;;;;11.55;8.88;;;21.40;60.90;;;;;;4995529;28;20096;-72
2021/09/25 12:23:42;;;;;;;12.02;8.38;;;21.40;61.00;;;;;;4995296;28;20042;-72
2021/09/25 12:26:10;;;;;;;10.32;7.43;;;21.50;61.80;;;;;;4995410;28;20034;-72
2021/09/25 12:28:47;;;;;;;8.70;7.45;;;21.50;62.50;;;;;;4995234;28;20038;-72
2021/09/25 12:31:21;;;;;;;8.63;7.45;;;21.60;62.30;;;;;;4995013;28;20042;-72
2021/09/25 12:33:59;;;;;;;8.40;6.70;;;21.60;62.10;;;;;;4994645;28;20109;-72
2021/09/25 12:36:32;;;;;;;11.70;7.43;;;21.60;62.60;;;;;;4994590;28;20478;-72
2021/09/25 12:39:06;;;;;;;13.30;7.65;;;21.60;61.90;;;;;;4994142;28;20398;-72
2021/09/25 12:41:33;;;;;;;11.45;6.80;;;21.70;62.40;;;;;;4993098;28;20029;-72
2021/09/25 12:44:03;;;;;;;9.80;6.32;;;21.70;61.80;;;;;;4993582;28;20081;-72
2021/09/25 12:46:34;;;;;;;11.63;8.45;;;21.90;72.20;;;;;;4976036;28;20033;-72
2021/09/25 12:49:05;;;;;;;18.50;9.00;;;21.80;60.70;;;;;;4994423;28;20034;-74